sensor_id;sensor_type;location;lat;lon;timestamp;P1;durP1;ratioP1;P2;durP2;ratioP2
47153;SDS011;32907;41.412;2.164;2023-08-21T00:01:34;7.65;;;5.40;;
47153;SDS011;32907;41.412;2.164;2023-08-21T00:04:02;10.60;;;5.53;;
47153;SDS011;32907;41.412;2.164;2023-08-21T00:06:31;8.75;;;5.40;;
47153;SDS011;32907;41.412;2.164;2023-08-21T00:09:00;7.55;;;5.13;;
47153;SDS011;32907;41.412;2.164;2023-08-21T00:11:29;8.55;;;5.53;;
47153;SDS011;32907;41.412;2.164;2023-08-21T00:13:57;10.45;;;5.90;;
47153;SDS011;32907;41.412;2.164;2023-08-21T00:16:25;9.73;;;6.40;;
47153;SDS011;32907;41.412;2.164;2023-08-21T00:18:54;10.02;;;7.00;;
47153;SDS011;32907;41.412;2.164;2023-08-21T00:21:22;12.18;;;9.68;;
47153;SDS011;32907;41.412;2.164;2023-08-21T00:23:49;11.93;;;10.05;;
47153;SDS011;32907;41.412;2.164;2023-08-21T00:26:17;13.35;;;11.10;;
47153;SDS011;32907;41.412;2.164;2023-08-21T00:28:45;13.20;;;11.35;;
47153;SDS011;32907;41.412;2.164;2023-08-21T00:31:13;14.35;;;10.48;;
47153;SDS011;32907;41.412;2.164;2023-08-21T00:33:41;12.85;;;9.00;;
47153;SDS011;32907;41.412;2.164;2023-08-21T00:36:08;10.82;;;8.32;;
47153;SDS011;32907;41.412;2.164;2023-08-21T00:38:36;12.15;;;7.43;;
47153;SDS011;32907;41.412;2.164;2023-08-21T00:41:05;10.88;;;7.10;;
47153;SDS011;32907;41.412;2.164;2023-08-21T00:43:32;9.50;;;7.40;;
47153;SDS011;32907;41.412;2.164;2023-08-21T00:46:00;11.20;;;7.22;;
47153;SDS011;32907;41.412;2.164;2023-08-21T00:48:29;10.35;;;6.90;;
47153;SDS011;32907;41.412;2.164;2023-08-21T00:50:57;10.88;;;7.22;;
47153;SDS011;32907;41.412;2.164;2023-08-21T00:53:25;10.18;;;6.85;;
47153;SDS011;32907;41.412;2.164;2023-08-21T00:55:53;9.68;;;6.93;;
47153;SDS011;32907;41.412;2.164;2023-08-21T00:58:21;11.57;;;6.75;;
47153;SDS011;32907;41.412;2.164;2023-08-21T01:00:49;10.07;;;7.07;;
47153;SDS011;32907;41.412;2.164;2023-08-21T01:03:19;8.23;;;7.03;;
47153;SDS011;32907;41.412;2.164;2023-08-21T01:05:47;10.18;;;7.70;;
47153;SDS011;32907;41.412;2.164;2023-08-21T01:08:52;9.98;;;7.00;;
47153;SDS011;32907;41.412;2.164;2023-08-21T01:11:24;8.60;;;6.18;;
47153;SDS011;32907;41.412;2.164;2023-08-21T01:14:47;9.57;;;6.13;;
47153;SDS011;32907;41.412;2.164;2023-08-21T01:16:56;8.63;;;6.13;;
47153;SDS011;32907;41.412;2.164;2023-08-21T01:19:35;8.32;;;5.60;;
47153;SDS011;32907;41.412;2.164;2023-08-21T01:22:05;7.90;;;5.72;;
47153;SDS011;32907;41.412;2.164;2023-08-21T01:24:34;8.82;;;5.78;;
47153;SDS011;32907;41.412;2.164;2023-08-21T01:27:04;8.38;;;5.55;;
47153;SDS011;32907;41.412;2.164;2023-08-21T01:29:32;7.60;;;5.60;;
47153;SDS011;32907;41.412;2.164;2023-08-21T01:32:06;9.80;;;5.75;;
47153;SDS011;32907;41.412;2.164;2023-08-21T01:34:38;7.47;;;5.32;;
47153;SDS011;32907;41.412;2.164;2023-08-21T01:37:07;8.55;;;5.68;;
47153;SDS011;32907;41.412;2.164;2023-08-21T01:39:36;9.68;;;6.82;;
47153;SDS011;32907;41.412;2.164;2023-08-21T01:42:08;10.38;;;6.90;;
47153;SDS011;32907;41.412;2.164;2023-08-21T01:44:36;9.73;;;7.03;;
47153;SDS011;32907;41.412;2.164;2023-08-21T01:47:04;8.85;;;6.63;;
47153;SDS011;32907;41.412;2.164;2023-08-21T01:49:32;12.05;;;7.93;;
47153;SDS011;32907;41.412;2.164;2023-08-21T01:52:00;9.07;;;7.53;;
47153;SDS011;32907;41.412;2.164;2023-08-21T01:54:28;8.77;;;6.97;;
47153;SDS011;32907;41.412;2.164;2023-08-21T01:56:57;8.85;;;7.13;;
47153;SDS011;32907;41.412;2.164;2023-08-21T01:59:26;9.05;;;7.00;;
47153;SDS011;32907;41.412;2.164;2023-08-21T02:01:54;11.57;;;6.85;;
47153;SDS011;32907;41.412;2.164;2023-08-21T02:04:24;11.00;;;6.82;;
47153;SDS011;32907;41.412;2.164;2023-08-21T02:06:52;10.35;;;6.07;;
47153;SDS011;32907;41.412;2.164;2023-08-21T02:09:22;10.35;;;6.50;;
47153;SDS011;32907;41.412;2.164;2023-08-21T02:11:49;8.18;;;5.60;;
47153;SDS011;32907;41.412;2.164;2023-08-21T02:14:18;7.43;;;5.63;;
47153;SDS011;32907;41.412;2.164;2023-08-21T02:16:46;10.52;;;5.97;;
47153;SDS011;32907;41.412;2.164;2023-08-21T02:19:14;7.88;;;5.72;;
47153;SDS011;32907;41.412;2.164;2023-08-21T02:21:43;8.07;;;5.95;;
47153;SDS011;32907;41.412;2.164;2023-08-21T02:24:11;9.35;;;5.32;;
47153;SDS011;32907;41.412;2.164;2023-08-21T02:26:39;8.77;;;5.55;;
47153;SDS011;32907;41.412;2.164;2023-08-21T02:29:07;8.23;;;5.57;;
47153;SDS011;32907;41.412;2.164;2023-08-21T02:31:34;6.70;;;5.25;;
47153;SDS011;32907;41.412;2.164;2023-08-21T02:34:02;8.55;;;5.20;;
47153;SDS011;32907;41.412;2.164;2023-08-21T02:36:30;9.52;;;5.72;;
47153;SDS011;32907;41.412;2.164;2023-08-21T02:38:59;8.10;;;5.20;;
47153;SDS011;32907;41.412;2.164;2023-08-21T02:41:27;10.13;;;4.65;;
47153;SDS011;32907;41.412;2.164;2023-08-21T02:43:54;11.20;;;5.05;;
47153;SDS011;32907;41.412;2.164;2023-08-21T02:46:22;7.13;;;5.15;;
47153;SDS011;32907;41.412;2.164;2023-08-21T02:48:50;7.93;;;4.97;;
47153;SDS011;32907;41.412;2.164;2023-08-21T02:51:18;8.77;;;5.00;;
47153;SDS011;32907;41.412;2.164;2023-08-21T02:53:46;8.10;;;5.25;;
47153;SDS011;32907;41.412;2.164;2023-08-21T02:56:14;9.13;;;5.38;;
47153;SDS011;32907;41.412;2.164;2023-08-21T02:58:42;7.55;;;5.40;;
47153;SDS011;32907;41.412;2.164;2023-08-21T03:01:09;8.60;;;5.38;;
47153;SDS011;32907;41.412;2.164;2023-08-21T03:03:38;9.10;;;5.88;;
47153;SDS011;32907;41.412;2.164;2023-08-21T03:06:05;9.38;;;5.63;;
47153;SDS011;32907;41.412;2.164;2023-08-21T03:08:33;6.53;;;5.00;;
47153;SDS011;32907;41.412;2.164;2023-08-21T03:11:02;9.00;;;5.30;;
47153;SDS011;32907;41.412;2.164;2023-08-21T03:13:30;9.23;;;5.90;;
47153;SDS011;32907;41.412;2.164;2023-08-21T03:15:58;7.72;;;5.22;;
47153;SDS011;32907;41.412;2.164;2023-08-21T03:18:30;9.02;;;5.60;;
47153;SDS011;32907;41.412;2.164;2023-08-21T03:20:58;9.23;;;4.90;;
47153;SDS011;32907;41.412;2.164;2023-08-21T03:23:27;9.05;;;5.20;;
47153;SDS011;32907;41.412;2.164;2023-08-21T03:25:55;8.43;;;5.20;;
47153;SDS011;32907;41.412;2.164;2023-08-21T03:28:22;8.80;;;5.00;;
47153;SDS011;32907;41.412;2.164;2023-08-21T03:30:52;8.57;;;5.13;;
47153;SDS011;32907;41.412;2.164;2023-08-21T03:33:20;9.00;;;4.88;;
47153;SDS011;32907;41.412;2.164;2023-08-21T03:35:52;8.73;;;5.15;;
47153;SDS011;32907;41.412;2.164;2023-08-21T03:38:23;6.47;;;5.03;;
47153;SDS011;32907;41.412;2.164;2023-08-21T03:40:51;7.70;;;5.15;;
47153;SDS011;32907;41.412;2.164;2023-08-21T03:43:19;8.25;;;5.13;;
47153;SDS011;32907;41.412;2.164;2023-08-21T03:45:47;9.98;;;5.75;;
47153;SDS011;32907;41.412;2.164;2023-08-21T03:48:17;6.72;;;4.90;;
47153;SDS011;32907;41.412;2.164;2023-08-21T03:50:45;9.32;;;4.93;;
47153;SDS011;32907;41.412;2.164;2023-08-21T03:53:13;8.52;;;5.25;;
47153;SDS011;32907;41.412;2.164;2023-08-21T03:55:40;6.60;;;4.90;;
47153;SDS011;32907;41.412;2.164;2023-08-21T03:58:09;8.43;;;5.15;;
47153;SDS011;32907;41.412;2.164;2023-08-21T04:00:40;7.25;;;4.78;;
47153;SDS011;32907;41.412;2.164;2023-08-21T04:03:10;7.63;;;5.40;;
47153;SDS011;32907;41.412;2.164;2023-08-21T04:05:38;9.48;;;5.45;;
47153;SDS011;32907;41.412;2.164;2023-08-21T04:08:06;7.85;;;5.13;;
47153;SDS011;32907;41.412;2.164;2023-08-21T04:10:34;8.77;;;5.05;;
47153;SDS011;32907;41.412;2.164;2023-08-21T04:13:02;7.65;;;5.30;;
47153;SDS011;32907;41.412;2.164;2023-08-21T04:15:30;10.40;;;5.22;;
47153;SDS011;32907;41.412;2.164;2023-08-21T04:17:59;8.20;;;5.00;;
47153;SDS011;32907;41.412;2.164;2023-08-21T04:20:26;6.78;;;5.00;;
47153;SDS011;32907;41.412;2.164;2023-08-21T04:22:54;6.70;;;4.75;;
47153;SDS011;32907;41.412;2.164;2023-08-21T04:25:22;8.27;;;5.00;;
47153;SDS011;32907;41.412;2.164;2023-08-21T04:27:50;10.50;;;4.65;;
47153;SDS011;32907;41.412;2.164;2023-08-21T04:30:18;9.27;;;5.18;;
47153;SDS011;32907;41.412;2.164;2023-08-21T04:32:46;8.80;;;5.13;;
47153;SDS011;32907;41.412;2.164;2023-08-21T04:35:16;8.57;;;5.68;;
47153;SDS011;32907;41.412;2.164;2023-08-21T04:37:45;8.15;;;5.05;;
47153;SDS011;32907;41.412;2.164;2023-08-21T04:40:16;7.05;;;5.25;;
47153;SDS011;32907;41.412;2.164;2023-08-21T04:42:47;6.55;;;5.18;;
47153;SDS011;32907;41.412;2.164;2023-08-21T04:45:15;12.38;;;5.28;;
47153;SDS011;32907;41.412;2.164;2023-08-21T04:47:43;8.38;;;5.07;;
47153;SDS011;32907;41.412;2.164;2023-08-21T04:50:11;9.18;;;4.97;;
47153;SDS011;32907;41.412;2.164;2023-08-21T04:52:39;8.65;;;5.18;;
47153;SDS011;32907;41.412;2.164;2023-08-21T04:55:11;6.43;;;4.32;;
47153;SDS011;32907;41.412;2.164;2023-08-21T04:57:41;9.15;;;5.43;;
47153;SDS011;32907;41.412;2.164;2023-08-21T05:00:11;9.13;;;5.47;;
47153;SDS011;32907;41.412;2.164;2023-08-21T05:02:42;7.00;;;4.85;;
47153;SDS011;32907;41.412;2.164;2023-08-21T05:05:11;8.63;;;5.05;;
47153;SDS011;32907;41.412;2.164;2023-08-21T05:07:39;9.40;;;5.00;;
47153;SDS011;32907;41.412;2.164;2023-08-21T05:10:07;8.77;;;4.57;;
47153;SDS011;32907;41.412;2.164;2023-08-21T05:12:38;8.02;;;5.28;;
47153;SDS011;32907;41.412;2.164;2023-08-21T05:15:06;7.90;;;5.00;;
47153;SDS011;32907;41.412;2.164;2023-08-21T05:17:35;10.95;;;5.10;;
47153;SDS011;32907;41.412;2.164;2023-08-21T05:20:04;8.15;;;4.90;;
47153;SDS011;32907;41.412;2.164;2023-08-21T05:22:32;6.90;;;5.20;;
47153;SDS011;32907;41.412;2.164;2023-08-21T05:25:00;10.45;;;4.60;;
47153;SDS011;32907;41.412;2.164;2023-08-21T05:27:28;8.32;;;5.22;;
47153;SDS011;32907;41.412;2.164;2023-08-21T05:29:55;14.35;;;5.65;;
47153;SDS011;32907;41.412;2.164;2023-08-21T05:32:24;6.97;;;5.10;;
47153;SDS011;32907;41.412;2.164;2023-08-21T05:34:52;7.90;;;5.65;;
47153;SDS011;32907;41.412;2.164;2023-08-21T05:37:20;5.70;;;4.82;;
47153;SDS011;32907;41.412;2.164;2023-08-21T05:39:49;7.22;;;5.32;;
47153;SDS011;32907;41.412;2.164;2023-08-21T05:42:17;8.70;;;5.55;;
47153;SDS011;32907;41.412;2.164;2023-08-21T05:44:46;7.95;;;5.15;;
47153;SDS011;32907;41.412;2.164;2023-08-21T05:47:14;7.07;;;5.38;;
47153;SDS011;32907;41.412;2.164;2023-08-21T05:49:42;11.05;;;5.57;;
47153;SDS011;32907;41.412;2.164;2023-08-21T05:52:11;4.55;;;2.75;;
47153;SDS011;32907;41.412;2.164;2023-08-21T05:54:39;11.15;;;4.75;;
47153;SDS011;32907;41.412;2.164;2023-08-21T05:57:09;11.63;;;5.63;;
47153;SDS011;32907;41.412;2.164;2023-08-21T05:59:42;9.68;;;4.80;;
47153;SDS011;32907;41.412;2.164;2023-08-21T06:02:15;9.88;;;5.30;;
47153;SDS011;32907;41.412;2.164;2023-08-21T06:04:43;8.65;;;4.82;;
47153;SDS011;32907;41.412;2.164;2023-08-21T06:07:12;9.45;;;4.65;;
47153;SDS011;32907;41.412;2.164;2023-08-21T06:09:40;9.73;;;5.75;;
47153;SDS011;32907;41.412;2.164;2023-08-21T06:12:09;10.25;;;4.93;;
47153;SDS011;32907;41.412;2.164;2023-08-21T06:14:40;7.85;;;5.38;;
47153;SDS011;32907;41.412;2.164;2023-08-21T06:17:08;9.40;;;6.20;;
47153;SDS011;32907;41.412;2.164;2023-08-21T06:19:37;10.52;;;6.20;;
47153;SDS011;32907;41.412;2.164;2023-08-21T06:22:06;10.35;;;6.05;;
47153;SDS011;32907;41.412;2.164;2023-08-21T06:24:34;11.88;;;6.72;;
47153;SDS011;32907;41.412;2.164;2023-08-21T06:27:04;12.40;;;6.70;;
47153;SDS011;32907;41.412;2.164;2023-08-21T06:29:35;10.77;;;6.15;;
47153;SDS011;32907;41.412;2.164;2023-08-21T06:32:05;12.63;;;6.28;;
47153;SDS011;32907;41.412;2.164;2023-08-21T06:34:33;16.17;;;6.68;;
47153;SDS011;32907;41.412;2.164;2023-08-21T06:37:01;12.40;;;6.07;;
47153;SDS011;32907;41.412;2.164;2023-08-21T06:39:28;12.60;;;6.25;;
47153;SDS011;32907;41.412;2.164;2023-08-21T06:41:56;15.07;;;6.70;;
47153;SDS011;32907;41.412;2.164;2023-08-21T06:44:31;14.88;;;6.70;;
47153;SDS011;32907;41.412;2.164;2023-08-21T06:46:59;11.77;;;6.78;;
47153;SDS011;32907;41.412;2.164;2023-08-21T06:49:27;14.05;;;6.68;;
47153;SDS011;32907;41.412;2.164;2023-08-21T06:51:55;9.52;;;6.40;;
47153;SDS011;32907;41.412;2.164;2023-08-21T06:54:23;15.88;;;6.57;;
47153;SDS011;32907;41.412;2.164;2023-08-21T06:56:51;10.20;;;6.20;;
47153;SDS011;32907;41.412;2.164;2023-08-21T06:59:19;12.77;;;6.43;;
47153;SDS011;32907;41.412;2.164;2023-08-21T07:01:47;16.45;;;7.22;;
47153;SDS011;32907;41.412;2.164;2023-08-21T07:04:15;13.25;;;6.95;;
47153;SDS011;32907;41.412;2.164;2023-08-21T07:06:43;13.70;;;6.95;;
47153;SDS011;32907;41.412;2.164;2023-08-21T07:09:11;10.07;;;6.85;;
47153;SDS011;32907;41.412;2.164;2023-08-21T07:11:38;14.38;;;6.80;;
47153;SDS011;32907;41.412;2.164;2023-08-21T07:14:06;10.10;;;6.15;;
47153;SDS011;32907;41.412;2.164;2023-08-21T07:16:35;9.85;;;4.68;;
47153;SDS011;32907;41.412;2.164;2023-08-21T07:19:03;6.60;;;4.72;;
47153;SDS011;32907;41.412;2.164;2023-08-21T07:21:31;7.45;;;4.57;;
47153;SDS011;32907;41.412;2.164;2023-08-21T07:24:02;9.40;;;5.65;;
47153;SDS011;32907;41.412;2.164;2023-08-21T07:26:33;13.75;;;6.20;;
47153;SDS011;32907;41.412;2.164;2023-08-21T07:29:01;8.88;;;4.75;;
47153;SDS011;32907;41.412;2.164;2023-08-21T07:31:28;10.90;;;5.05;;
47153;SDS011;32907;41.412;2.164;2023-08-21T07:33:58;13.43;;;6.65;;
47153;SDS011;32907;41.412;2.164;2023-08-21T07:36:26;13.27;;;6.90;;
47153;SDS011;32907;41.412;2.164;2023-08-21T07:38:54;11.82;;;6.80;;
47153;SDS011;32907;41.412;2.164;2023-08-21T07:41:22;13.77;;;7.45;;
47153;SDS011;32907;41.412;2.164;2023-08-21T07:43:52;15.05;;;7.18;;
47153;SDS011;32907;41.412;2.164;2023-08-21T07:46:20;14.02;;;7.00;;
47153;SDS011;32907;41.412;2.164;2023-08-21T07:48:49;15.75;;;7.07;;
47153;SDS011;32907;41.412;2.164;2023-08-21T07:51:17;17.02;;;6.97;;
47153;SDS011;32907;41.412;2.164;2023-08-21T07:53:45;16.52;;;6.65;;
47153;SDS011;32907;41.412;2.164;2023-08-21T07:56:13;12.57;;;7.43;;
47153;SDS011;32907;41.412;2.164;2023-08-21T07:58:41;12.90;;;7.80;;
47153;SDS011;32907;41.412;2.164;2023-08-21T08:01:09;14.50;;;7.57;;
47153;SDS011;32907;41.412;2.164;2023-08-21T08:03:37;13.00;;;7.30;;
47153;SDS011;32907;41.412;2.164;2023-08-21T08:06:07;14.25;;;6.90;;
47153;SDS011;32907;41.412;2.164;2023-08-21T08:08:35;15.35;;;6.97;;
47153;SDS011;32907;41.412;2.164;2023-08-21T08:11:03;12.82;;;7.10;;
47153;SDS011;32907;41.412;2.164;2023-08-21T08:13:32;11.80;;;7.43;;
47153;SDS011;32907;41.412;2.164;2023-08-21T08:16:00;10.40;;;6.75;;
47153;SDS011;32907;41.412;2.164;2023-08-21T08:18:28;15.40;;;7.22;;
47153;SDS011;32907;41.412;2.164;2023-08-21T08:20:56;11.02;;;6.72;;
47153;SDS011;32907;41.412;2.164;2023-08-21T08:23:24;14.02;;;6.97;;
47153;SDS011;32907;41.412;2.164;2023-08-21T08:25:54;9.07;;;6.43;;
47153;SDS011;32907;41.412;2.164;2023-08-21T08:28:21;12.65;;;6.32;;
47153;SDS011;32907;41.412;2.164;2023-08-21T08:30:52;12.88;;;6.55;;
47153;SDS011;32907;41.412;2.164;2023-08-21T08:33:20;11.82;;;6.32;;
47153;SDS011;32907;41.412;2.164;2023-08-21T08:35:48;8.43;;;6.07;;
47153;SDS011;32907;41.412;2.164;2023-08-21T08:38:18;10.50;;;6.57;;
47153;SDS011;32907;41.412;2.164;2023-08-21T08:40:47;11.68;;;6.38;;
47153;SDS011;32907;41.412;2.164;2023-08-21T08:43:18;11.57;;;6.20;;
47153;SDS011;32907;41.412;2.164;2023-08-21T08:45:47;13.27;;;6.20;;
47153;SDS011;32907;41.412;2.164;2023-08-21T08:48:15;9.80;;;5.88;;
47153;SDS011;32907;41.412;2.164;2023-08-21T08:50:43;10.90;;;6.15;;
47153;SDS011;32907;41.412;2.164;2023-08-21T08:53:13;9.88;;;5.00;;
47153;SDS011;32907;41.412;2.164;2023-08-21T08:55:44;12.20;;;5.82;;
47153;SDS011;32907;41.412;2.164;2023-08-21T08:58:12;33.83;;;7.22;;
47153;SDS011;32907;41.412;2.164;2023-08-21T09:00:42;12.13;;;5.95;;
47153;SDS011;32907;41.412;2.164;2023-08-21T09:03:10;11.35;;;6.35;;
47153;SDS011;32907;41.412;2.164;2023-08-21T09:05:39;9.48;;;6.43;;
47153;SDS011;32907;41.412;2.164;2023-08-21T09:10:36;11.88;;;6.25;;
47153;SDS011;32907;41.412;2.164;2023-08-21T09:13:10;9.45;;;5.30;;
47153;SDS011;32907;41.412;2.164;2023-08-21T09:15:48;9.38;;;5.43;;
47153;SDS011;32907;41.412;2.164;2023-08-21T09:18:20;8.82;;;5.63;;
47153;SDS011;32907;41.412;2.164;2023-08-21T09:20:48;7.43;;;5.30;;
47153;SDS011;32907;41.412;2.164;2023-08-21T09:23:17;11.20;;;5.70;;
47153;SDS011;32907;41.412;2.164;2023-08-21T09:25:48;11.98;;;5.90;;
47153;SDS011;32907;41.412;2.164;2023-08-21T09:28:20;19.65;;;5.07;;
47153;SDS011;32907;41.412;2.164;2023-08-21T09:30:52;11.80;;;5.38;;
47153;SDS011;32907;41.412;2.164;2023-08-21T09:33:22;9.25;;;5.30;;
47153;SDS011;32907;41.412;2.164;2023-08-21T09:35:52;10.05;;;5.38;;
47153;SDS011;32907;41.412;2.164;2023-08-21T09:38:20;12.15;;;5.57;;
47153;SDS011;32907;41.412;2.164;2023-08-21T09:40:55;7.10;;;5.20;;
47153;SDS011;32907;41.412;2.164;2023-08-21T09:43:23;8.68;;;5.47;;
47153;SDS011;32907;41.412;2.164;2023-08-21T09:45:53;8.48;;;5.35;;
47153;SDS011;32907;41.412;2.164;2023-08-21T09:48:25;8.43;;;5.45;;
47153;SDS011;32907;41.412;2.164;2023-08-21T09:50:57;11.70;;;5.10;;
47153;SDS011;32907;41.412;2.164;2023-08-21T09:53:25;11.45;;;5.97;;
47153;SDS011;32907;41.412;2.164;2023-08-21T09:56:11;11.32;;;5.32;;
47153;SDS011;32907;41.412;2.164;2023-08-21T09:58:39;8.23;;;5.60;;
47153;SDS011;32907;41.412;2.164;2023-08-21T10:01:08;8.60;;;4.95;;
47153;SDS011;32907;41.412;2.164;2023-08-21T10:03:41;10.30;;;5.65;;
47153;SDS011;32907;41.412;2.164;2023-08-21T10:06:15;8.63;;;5.30;;
47153;SDS011;32907;41.412;2.164;2023-08-21T10:08:50;12.57;;;5.35;;
47153;SDS011;32907;41.412;2.164;2023-08-21T10:11:21;9.15;;;5.18;;
47153;SDS011;32907;41.412;2.164;2023-08-21T10:13:50;10.13;;;5.13;;
47153;SDS011;32907;41.412;2.164;2023-08-21T10:16:19;9.93;;;5.20;;
47153;SDS011;32907;41.412;2.164;2023-08-21T10:18:49;7.68;;;5.20;;
47153;SDS011;32907;41.412;2.164;2023-08-21T10:21:21;6.72;;;5.13;;
47153;SDS011;32907;41.412;2.164;2023-08-21T10:23:54;11.02;;;5.35;;
47153;SDS011;32907;41.412;2.164;2023-08-21T10:26:23;11.55;;;5.22;;
47153;SDS011;32907;41.412;2.164;2023-08-21T10:29:00;8.43;;;4.73;;
47153;SDS011;32907;41.412;2.164;2023-08-21T10:31:35;6.27;;;4.70;;
47153;SDS011;32907;41.412;2.164;2023-08-21T10:34:11;8.13;;;4.57;;
47153;SDS011;32907;41.412;2.164;2023-08-21T10:39:16;9.85;;;4.55;;
47153;SDS011;32907;41.412;2.164;2023-08-21T10:41:55;8.77;;;4.68;;
47153;SDS011;32907;41.412;2.164;2023-08-21T10:44:34;7.50;;;4.53;;
47153;SDS011;32907;41.412;2.164;2023-08-21T10:49:49;9.32;;;4.72;;
47153;SDS011;32907;41.412;2.164;2023-08-21T10:52:23;9.15;;;4.30;;
47153;SDS011;32907;41.412;2.164;2023-08-21T10:54:54;7.60;;;4.57;;
47153;SDS011;32907;41.412;2.164;2023-08-21T10:57:23;9.52;;;4.68;;
47153;SDS011;32907;41.412;2.164;2023-08-21T11:02:32;9.68;;;4.18;;
47153;SDS011;32907;41.412;2.164;2023-08-21T11:05:01;7.97;;;4.30;;
47153;SDS011;32907;41.412;2.164;2023-08-21T11:07:39;12.23;;;5.32;;
47153;SDS011;32907;41.412;2.164;2023-08-21T11:10:09;19.83;;;9.20;;
47153;SDS011;32907;41.412;2.164;2023-08-21T11:12:47;13.45;;;8.13;;
47153;SDS011;32907;41.412;2.164;2023-08-21T11:15:25;12.25;;;6.13;;
47153;SDS011;32907;41.412;2.164;2023-08-21T11:20:28;8.00;;;4.55;;
47153;SDS011;32907;41.412;2.164;2023-08-21T11:22:57;9.00;;;4.43;;
47153;SDS011;32907;41.412;2.164;2023-08-21T11:25:26;6.75;;;4.20;;
47153;SDS011;32907;41.412;2.164;2023-08-21T11:27:55;6.70;;;4.13;;
47153;SDS011;32907;41.412;2.164;2023-08-21T11:30:23;6.03;;;4.15;;
47153;SDS011;32907;41.412;2.164;2023-08-21T11:33:10;8.20;;;3.72;;
47153;SDS011;32907;41.412;2.164;2023-08-21T11:35:40;6.90;;;3.70;;
47153;SDS011;32907;41.412;2.164;2023-08-21T11:38:16;9.90;;;3.92;;
47153;SDS011;32907;41.412;2.164;2023-08-21T11:43:38;7.72;;;3.63;;
47153;SDS011;32907;41.412;2.164;2023-08-21T11:46:08;5.97;;;3.42;;
47153;SDS011;32907;41.412;2.164;2023-08-21T11:48:41;5.78;;;3.70;;
47153;SDS011;32907;41.412;2.164;2023-08-21T11:51:10;7.53;;;3.70;;
47153;SDS011;32907;41.412;2.164;2023-08-21T11:53:39;6.32;;;3.63;;
47153;SDS011;32907;41.412;2.164;2023-08-21T11:56:09;8.77;;;4.10;;
47153;SDS011;32907;41.412;2.164;2023-08-21T11:58:39;12.05;;;7.57;;
47153;SDS011;32907;41.412;2.164;2023-08-21T12:01:08;12.10;;;5.55;;
47153;SDS011;32907;41.412;2.164;2023-08-21T12:03:37;10.52;;;5.45;;
47153;SDS011;32907;41.412;2.164;2023-08-21T12:06:10;16.70;;;6.22;;
47153;SDS011;32907;41.412;2.164;2023-08-21T12:08:39;17.25;;;6.25;;
47153;SDS011;32907;41.412;2.164;2023-08-21T12:11:07;8.60;;;4.47;;
47153;SDS011;32907;41.412;2.164;2023-08-21T12:13:37;6.05;;;3.95;;
47153;SDS011;32907;41.412;2.164;2023-08-21T12:16:04;6.97;;;3.80;;
47153;SDS011;32907;41.412;2.164;2023-08-21T12:18:32;8.88;;;4.25;;
47153;SDS011;32907;41.412;2.164;2023-08-21T12:21:00;8.75;;;4.07;;
47153;SDS011;32907;41.412;2.164;2023-08-21T12:23:28;6.82;;;4.28;;
47153;SDS011;32907;41.412;2.164;2023-08-21T12:25:56;8.50;;;3.92;;
47153;SDS011;32907;41.412;2.164;2023-08-21T12:28:24;4.85;;;3.55;;
47153;SDS011;32907;41.412;2.164;2023-08-21T12:30:52;6.07;;;3.63;;
47153;SDS011;32907;41.412;2.164;2023-08-21T12:33:20;6.20;;;3.58;;
47153;SDS011;32907;41.412;2.164;2023-08-21T12:35:50;5.75;;;3.22;;
47153;SDS011;32907;41.412;2.164;2023-08-21T12:38:18;8.43;;;3.55;;
47153;SDS011;32907;41.412;2.164;2023-08-21T12:40:48;9.95;;;5.32;;
47153;SDS011;32907;41.412;2.164;2023-08-21T12:43:15;6.97;;;4.70;;
47153;SDS011;32907;41.412;2.164;2023-08-21T12:45:43;8.48;;;4.57;;
47153;SDS011;32907;41.412;2.164;2023-08-21T12:48:11;10.95;;;6.00;;
47153;SDS011;32907;41.412;2.164;2023-08-21T12:50:39;10.80;;;6.70;;
47153;SDS011;32907;41.412;2.164;2023-08-21T12:53:07;9.00;;;5.38;;
47153;SDS011;32907;41.412;2.164;2023-08-21T12:55:35;8.82;;;4.72;;
47153;SDS011;32907;41.412;2.164;2023-08-21T12:58:03;6.30;;;4.18;;
47153;SDS011;32907;41.412;2.164;2023-08-21T13:00:32;7.93;;;4.57;;
47153;SDS011;32907;41.412;2.164;2023-08-21T13:03:00;8.63;;;4.40;;
47153;SDS011;32907;41.412;2.164;2023-08-21T13:05:29;10.18;;;4.55;;
47153;SDS011;32907;41.412;2.164;2023-08-21T13:07:57;8.82;;;4.68;;
47153;SDS011;32907;41.412;2.164;2023-08-21T13:10:25;7.20;;;4.60;;
47153;SDS011;32907;41.412;2.164;2023-08-21T13:12:52;9.55;;;6.20;;
47153;SDS011;32907;41.412;2.164;2023-08-21T13:15:20;11.13;;;5.75;;
47153;SDS011;32907;41.412;2.164;2023-08-21T13:17:48;9.05;;;6.03;;
47153;SDS011;32907;41.412;2.164;2023-08-21T13:20:16;8.15;;;5.75;;
47153;SDS011;32907;41.412;2.164;2023-08-21T13:22:48;8.35;;;5.70;;
47153;SDS011;32907;41.412;2.164;2023-08-21T13:25:19;10.88;;;6.68;;
47153;SDS011;32907;41.412;2.164;2023-08-21T13:27:48;9.18;;;6.93;;
47153;SDS011;32907;41.412;2.164;2023-08-21T13:30:17;10.27;;;6.30;;
47153;SDS011;32907;41.412;2.164;2023-08-21T13:32:45;11.52;;;6.45;;
47153;SDS011;32907;41.412;2.164;2023-08-21T13:35:13;12.43;;;6.32;;
47153;SDS011;32907;41.412;2.164;2023-08-21T13:37:41;9.02;;;5.07;;
47153;SDS011;32907;41.412;2.164;2023-08-21T13:40:09;12.25;;;6.07;;
47153;SDS011;32907;41.412;2.164;2023-08-21T13:42:40;9.18;;;5.18;;
47153;SDS011;32907;41.412;2.164;2023-08-21T13:45:09;10.80;;;5.72;;
47153;SDS011;32907;41.412;2.164;2023-08-21T13:47:40;10.93;;;5.80;;
47153;SDS011;32907;41.412;2.164;2023-08-21T13:50:10;6.47;;;5.32;;
47153;SDS011;32907;41.412;2.164;2023-08-21T13:52:38;7.93;;;5.53;;
47153;SDS011;32907;41.412;2.164;2023-08-21T13:55:07;11.23;;;5.30;;
47153;SDS011;32907;41.412;2.164;2023-08-21T13:57:36;6.47;;;4.70;;
47153;SDS011;32907;41.412;2.164;2023-08-21T14:00:05;8.55;;;5.40;;
47153;SDS011;32907;41.412;2.164;2023-08-21T14:02:35;9.38;;;5.18;;
47153;SDS011;32907;41.412;2.164;2023-08-21T14:05:03;11.30;;;5.05;;
47153;SDS011;32907;41.412;2.164;2023-08-21T14:07:32;6.88;;;4.80;;
47153;SDS011;32907;41.412;2.164;2023-08-21T14:10:01;8.60;;;5.15;;
47153;SDS011;32907;41.412;2.164;2023-08-21T14:12:29;9.30;;;5.60;;
47153;SDS011;32907;41.412;2.164;2023-08-21T14:14:58;8.60;;;5.18;;
47153;SDS011;32907;41.412;2.164;2023-08-21T14:17:28;11.25;;;5.15;;
47153;SDS011;32907;41.412;2.164;2023-08-21T14:19:56;10.30;;;5.28;;
47153;SDS011;32907;41.412;2.164;2023-08-21T14:22:23;7.88;;;4.70;;
47153;SDS011;32907;41.412;2.164;2023-08-21T14:24:51;7.25;;;4.93;;
47153;SDS011;32907;41.412;2.164;2023-08-21T14:27:19;6.40;;;4.47;;
47153;SDS011;32907;41.412;2.164;2023-08-21T14:29:47;7.47;;;4.95;;
47153;SDS011;32907;41.412;2.164;2023-08-21T14:32:15;7.93;;;4.88;;
47153;SDS011;32907;41.412;2.164;2023-08-21T14:34:43;10.10;;;5.30;;
47153;SDS011;32907;41.412;2.164;2023-08-21T14:37:11;7.07;;;4.55;;
47153;SDS011;32907;41.412;2.164;2023-08-21T14:39:42;8.40;;;5.00;;
47153;SDS011;32907;41.412;2.164;2023-08-21T14:42:10;8.93;;;5.18;;
47153;SDS011;32907;41.412;2.164;2023-08-21T14:44:39;6.80;;;4.75;;
47153;SDS011;32907;41.412;2.164;2023-08-21T14:47:07;10.27;;;5.60;;
47153;SDS011;32907;41.412;2.164;2023-08-21T14:49:36;6.95;;;4.28;;
47153;SDS011;32907;41.412;2.164;2023-08-21T14:52:04;9.40;;;4.35;;
47153;SDS011;32907;41.412;2.164;2023-08-21T14:54:35;7.63;;;4.50;;
47153;SDS011;32907;41.412;2.164;2023-08-21T14:57:03;7.15;;;4.25;;
47153;SDS011;32907;41.412;2.164;2023-08-21T14:59:31;10.95;;;4.32;;
47153;SDS011;32907;41.412;2.164;2023-08-21T15:01:59;8.88;;;4.57;;
47153;SDS011;32907;41.412;2.164;2023-08-21T15:04:27;8.55;;;4.10;;
47153;SDS011;32907;41.412;2.164;2023-08-21T15:06:55;8.40;;;4.15;;
47153;SDS011;32907;41.412;2.164;2023-08-21T15:09:23;8.10;;;4.57;;
47153;SDS011;32907;41.412;2.164;2023-08-21T15:11:50;10.55;;;5.07;;